Time;durP1;ratioP1;P1;durP2;ratioP2;P2;SDS_P1;SDS_P2;PMS_P1;PMS_P2;Temp;Humidity;BMP_temperature;BMP_pressure;BME280_temperature;BME280_humidity;BME280_pressure;Samples;Min_cycle;Max_cycle;Signal;HPM_P1;HPM_P2
2021/09/01 00:00:36;;;;;;;25.00;15.90;;;13.20;99.90;;;;;;5068689;28;20436;-58
2021/09/01 00:03:02;;;;;;;28.00;16.20;;;13.30;99.90;;;;;;5068845;28;20477;-58
2021/09/01 00:05:28;;;;;;;29.88;17.17;;;13.30;99.90;;;;;;5068766;28;20378;-58
2021/09/01 00:07:53;;;;;;;30.05;17.15;;;13.20;99.90;;;;;;5069555;28;20404;-58
2021/09/01 00:10:19;;;;;;;28.60;16.37;;;13.30;99.90;;;;;;5068521;28;20372;-58
2021/09/01 00:12:45;;;;;;;26.17;15.25;;;13.20;99.90;;;;;;5069323;28;20406;-57
2021/09/01 00:15:12;;;;;;;23.60;14.90;;;13.10;99.90;;;;;;5069197;28;20497;-58
2021/09/01 00:17:38;;;;;;;24.73;14.38;;;13.20;99.90;;;;;;5068441;28;20426;-58
2021/09/01 00:20:07;;;;;;;24.23;13.77;;;13.20;99.90;;;;;;5071721;28;20852;-58
2021/09/01 00:22:33;;;;;;;22.73;13.52;;;13.20;99.90;;;;;;5072175;28;20430;-58
2021/09/01 00:24:58;;;;;;;24.67;13.45;;;13.10;99.90;;;;;;5073237;28;20755;-58
2021/09/01 00:27:24;;;;;;;22.10;13.00;;;13.00;99.90;;;;;;5071632;28;20384;-58
2021/09/01 00:29:50;;;;;;;25.92;15.43;;;13.00;99.90;;;;;;5072242;28;20441;-58
2021/09/01 00:32:16;;;;;;;25.10;14.40;;;12.90;99.90;;;;;;5072272;28;20412;-58
2021/09/01 00:34:41;;;;;;;25.73;15.02;;;12.80;99.90;;;;;;5071124;28;20376;-58
2021/09/01 00:37:07;;;;;;;26.43;15.70;;;12.70;99.90;;;;;;5071918;28;20383;-58
2021/09/01 00:39:33;;;;;;;21.93;12.90;;;12.70;99.90;;;;;;5071210;28;20838;-58
2021/09/01 00:42:06;;;;;;;25.67;14.45;;;12.70;99.90;;;;;;5072062;28;20418;-59
2021/09/01 00:44:33;;;;;;;25.67;14.20;;;12.70;99.90;;;;;;5071511;28;20411;-58
2021/09/01 00:46:58;;;;;;;25.42;14.05;;;12.80;99.90;;;;;;5071600;28;20388;-59
2021/09/01 00:49:28;;;;;;;21.73;13.05;;;12.70;99.90;;;;;;5071044;28;20387;-58
2021/09/01 00:51:54;;;;;;;23.77;12.98;;;12.70;99.90;;;;;;5071640;28;20498;-58
2021/09/01 00:54:22;;;;;;;26.38;15.15;;;12.60;99.90;;;;;;5071348;28;20471;-58
2021/09/01 00:56:52;;;;;;;26.20;15.17;;;12.60;99.90;;;;;;5071758;28;20463;-58
2021/09/01 00:59:20;;;;;;;25.87;14.80;;;12.60;99.90;;;;;;5071787;28;20870;-58
2021/09/01 01:01:47;;;;;;;27.90;15.57;;;12.60;99.90;;;;;;5071383;28;20412;-58
2021/09/01 01:04:13;;;;;;;27.30;14.10;;;12.60;99.90;;;;;;5071516;28;20413;-58
2021/09/01 01:06:38;;;;;;;24.70;14.83;;;12.60;99.90;;;;;;5070634;28;20406;-58
2021/09/01 01:09:04;;;;;;;26.05;15.35;;;12.60;99.90;;;;;;5071544;28;20460;-57
2021/09/01 01:11:30;;;;;;;31.27;17.10;;;12.60;99.90;;;;;;5070976;28;20387;-58
2021/09/01 01:13:56;;;;;;;32.33;17.33;;;12.60;99.90;;;;;;5071655;28;20959;-58
2021/09/01 01:16:22;;;;;;;29.42;16.20;;;12.60;99.90;;;;;;5070582;28;20433;-58
2021/09/01 01:18:49;;;;;;;28.02;16.58;;;12.60;99.90;;;;;;5071127;28;20875;-58
2021/09/01 01:21:25;;;;;;;30.25;15.88;;;12.60;99.90;;;;;;5071438;28;20539;-59
2021/09/01 01:23:59;;;;;;;26.92;15.10;;;12.60;99.90;;;;;;5071247;28;20386;-59
2021/09/01 01:26:25;;;;;;;26.58;15.30;;;12.60;99.90;;;;;;5070144;28;20738;-59
2021/09/01 01:28:57;;;;;;;25.03;14.70;;;12.70;99.90;;;;;;5069912;28;20854;-59
2021/09/01 01:31:23;;;;;;;25.30;14.55;;;12.70;99.90;;;;;;5069506;28;20375;-59
2021/09/01 01:33:49;;;;;;;28.23;15.43;;;12.60;99.90;;;;;;5071130;28;20379;-59
2021/09/01 01:36:15;;;;;;;26.65;14.95;;;12.50;99.90;;;;;;5070931;28;20433;-59
2021/09/01 01:38:41;;;;;;;27.58;15.30;;;12.60;99.90;;;;;;5070157;28;20469;-59
2021/09/01 01:41:07;;;;;;;24.63;14.75;;;12.60;99.90;;;;;;5069149;28;20462;-60
2021/09/01 01:43:36;;;;;;;25.45;14.90;;;12.60;99.90;;;;;;5069476;28;20407;-59
2021/09/01 01:46:06;;;;;;;27.38;14.85;;;12.60;99.90;;;;;;5070755;28;20392;-58
2021/09/01 01:48:33;;;;;;;31.33;16.48;;;12.60;99.90;;;;;;5069745;28;20426;-58
2021/09/01 01:51:00;;;;;;;30.45;17.13;;;12.50;99.90;;;;;;5069273;28;20388;-58
2021/09/01 01:53:26;;;;;;;33.30;17.37;;;12.50;99.90;;;;;;5069705;28;20459;-58
2021/09/01 01:55:52;;;;;;;31.30;17.40;;;12.50;99.90;;;;;;5070162;28;20786;-58
2021/09/01 01:58:18;;;;;;;31.83;17.80;;;12.50;99.90;;;;;;5070397;28;20376;-58
2021/09/01 02:00:43;;;;;;;32.72;17.45;;;12.50;99.90;;;;;;5069679;28;20730;-58
2021/09/01 02:03:09;;;;;;;36.75;18.38;;;12.50;99.90;;;;;;5070524;28;20463;-58
2021/09/01 02:05:35;;;;;;;35.45;18.40;;;12.50;99.90;;;;;;5069677;28;20433;-58
2021/09/01 02:08:00;;;;;;;31.93;17.43;;;12.50;99.90;;;;;;5070224;28;20392;-58
2021/09/01 02:10:26;;;;;;;32.70;17.10;;;12.50;99.90;;;;;;5069550;28;20371;-58
2021/09/01 02:12:52;;;;;;;31.70;17.03;;;12.40;99.90;;;;;;5070210;28;20467;-58
2021/09/01 02:15:18;;;;;;;27.98;16.02;;;12.40;99.90;;;;;;5069888;28;20392;-58
2021/09/01 02:17:44;;;;;;;30.60;16.93;;;12.30;99.90;;;;;;5069479;28;20966;-58
2021/09/01 02:20:12;;;;;;;31.17;15.88;;;11.60;99.90;;;;;;5069946;28;20391;-58
2021/09/01 02:22:38;;;;;;;28.88;16.15;;;12.30;99.90;;;;;;5069193;28;20415;-58
2021/09/01 02:25:05;;;;;;;30.17;16.20;;;12.30;99.90;;;;;;5070030;28;20387;-57
2021/09/01 02:27:31;;;;;;;33.37;17.80;;;12.30;99.90;;;;;;5069392;28;20484;-58
2021/09/01 02:29:57;;;;;;;35.22;17.17;;;12.40;99.90;;;;;;5068593;28;20491;-58
2021/09/01 02:32:23;;;;;;;31.20;17.23;;;12.40;99.90;;;;;;5068162;28;20475;-58
2021/09/01 02:34:49;;;;;;;35.70;17.58;;;11.70;99.90;;;;;;5069694;28;20842;-58
2021/09/01 02:37:14;;;;;;;33.23;15.80;;;12.40;99.90;;;;;;5069718;28;20376;-58
2021/09/01 02:39:40;;;;;;;32.85;16.90;;;12.30;99.90;;;;;;5068947;28;20845;-58
2021/09/01 02:42:06;;;;;;;26.70;15.40;;;12.30;99.90;;;;;;5069434;28;20404;-58
2021/09/01 02:44:32;;;;;;;28.85;15.90;;;12.30;99.90;;;;;;5069154;28;20904;-58
2021/09/01 02:46:58;;;;;;;29.65;15.80;;;12.20;99.90;;;;;;5070127;28;20406;-58
2021/09/01 02:49:24;;;;;;;28.77;16.10;;;12.20;99.90;;;;;;5068977;28;20380;-58
2021/09/01 02:51:50;;;;;;;32.88;17.02;;;12.10;99.90;;;;;;5069839;28;20473;-59
2021/09/01 02:54:15;;;;;;;33.20;17.57;;;12.10;99.90;;;;;;5068342;28;20475;-58
2021/09/01 02:56:41;;;;;;;30.08;16.02;;;12.20;99.90;;;;;;5068588;28;20458;-59
2021/09/01 02:59:07;;;;;;;31.43;16.57;;;12.20;99.90;;;;;;5069389;28;20768;-58
2021/09/01 03:01:33;;;;;;;29.85;17.13;;;12.10;99.90;;;;;;5067230;28;20478;-58
2021/09/01 03:03:58;;;;;;;28.10;15.80;;;12.00;99.90;;;;;;5069149;28;20452;-59
2021/09/01 03:06:24;;;;;;;28.00;16.55;;;12.00;99.90;;;;;;5068979;28;20876;-58
2021/09/01 03:08:49;;;;;;;30.15;15.65;;;11.90;99.90;;;;;;5069085;28;20396;-58
2021/09/01 03:11:15;;;;;;;25.60;14.70;;;11.90;99.90;;;;;;5069139;28;20379;-59
2021/09/01 03:13:42;;;;;;;31.25;16.17;;;11.90;99.90;;;;;;5068925;28;21067;-58
2021/09/01 03:16:07;;;;;;;28.65;15.55;;;11.90;99.90;;;;;;5068971;28;20965;-58
2021/09/01 03:18:33;;;;;;;28.30;15.60;;;11.90;99.90;;;;;;5068616;28;20418;-58
2021/09/01 03:20:59;;;;;;;29.80;15.90;;;11.70;99.90;;;;;;5068082;28;20714;-58
2021/09/01 03:23:24;;;;;;;26.70;14.40;;;11.70;99.90;;;;;;5068821;28;20812;-58
2021/09/01 03:25:50;;;;;;;27.50;15.17;;;11.70;99.90;;;;;;5069270;28;20461;-58
2021/09/01 03:28:15;;;;;;;30.13;16.15;;;11.60;99.90;;;;;;5069230;28;20843;-58
2021/09/01 03:30:41;;;;;;;30.43;15.87;;;11.70;99.90;;;;;;5068501;28;20849;-58
2021/09/01 03:33:07;;;;;;;30.23;14.80;;;11.60;99.90;;;;;;5069264;28;20408;-58
2021/09/01 03:35:32;;;;;;;29.55;16.02;;;11.50;99.90;;;;;;5068493;28;20376;-58
2021/09/01 03:37:58;;;;;;;26.77;15.30;;;11.50;99.90;;;;;;5069423;28;20388;-58
2021/09/01 03:40:24;;;;;;;27.45;14.82;;;11.50;99.90;;;;;;5068377;28;20466;-58
2021/09/01 03:42:49;;;;;;;25.80;14.30;;;11.50;99.90;;;;;;5069081;28;20577;-58
2021/09/01 03:45:15;;;;;;;26.23;13.87;;;11.50;99.90;;;;;;5068980;28;20390;-58
2021/09/01 03:47:41;;;;;;;27.70;14.45;;;11.40;99.90;;;;;;5067990;28;20379;-58
2021/09/01 03:50:09;;;;;;;28.67;14.23;;;11.40;99.90;;;;;;5069000;28;20475;-57
2021/09/01 03:52:36;;;;;;;25.55;13.82;;;11.30;99.90;;;;;;5067927;28;20865;-58
2021/09/01 03:55:02;;;;;;;25.85;13.93;;;11.30;99.90;;;;;;5070284;28;20379;-57
2021/09/01 03:57:28;;;;;;;30.42;16.80;;;11.30;99.90;;;;;;5072121;28;20391;-58
2021/09/01 03:59:53;;;;;;;32.17;16.80;;;11.40;99.90;;;;;;5072362;28;20372;-57
2021/09/01 04:02:19;;;;;;;33.58;17.45;;;11.40;99.90;;;;;;5072364;28;20399;-57
2021/09/01 04:04:45;;;;;;;34.17;16.13;;;11.40;99.90;;;;;;5070662;28;20883;-57
2021/09/01 04:07:11;;;;;;;33.83;17.05;;;11.40;99.90;;;;;;5072653;28;20482;-57
2021/09/01 04:09:36;;;;;;;30.93;15.80;;;11.40;99.90;;;;;;5071511;28;20417;-57
2021/09/01 04:12:02;;;;;;;30.60;15.90;;;11.40;99.90;;;;;;5072475;28;20387;-57
2021/09/01 04:14:28;;;;;;;34.25;17.17;;;11.40;99.90;;;;;;5071477;28;20845;-57
2021/09/01 04:16:54;;;;;;;33.23;16.60;;;11.40;99.90;;;;;;5070949;28;20408;-57
2021/09/01 04:19:19;;;;;;;32.50;16.70;;;11.40;99.90;;;;;;5072303;28;20428;-57
2021/09/01 04:21:45;;;;;;;32.58;16.63;;;11.50;99.90;;;;;;5071619;28;20414;-57
2021/09/01 04:24:11;;;;;;;31.00;16.20;;;11.40;99.90;;;;;;5072236;28;20395;-57
2021/09/01 04:26:36;;;;;;;30.50;15.30;;;11.40;99.90;;;;;;5071558;28;20455;-57
2021/09/01 04:29:02;;;;;;;30.90;16.00;;;11.40;99.90;;;;;;5071926;28;20908;-57
2021/09/01 04:31:28;;;;;;;32.83;17.08;;;11.30;99.90;;;;;;5069798;28;20390;-57
2021/09/01 04:33:53;;;;;;;33.30;16.60;;;11.30;99.90;;;;;;5071360;28;20857;-58
2021/09/01 04:36:19;;;;;;;36.58;17.08;;;11.20;99.90;;;;;;5071989;28;20392;-57
2021/09/01 04:38:45;;;;;;;28.05;14.93;;;11.20;99.90;;;;;;5071222;28;20853;-57
2021/09/01 04:41:10;;;;;;;29.93;15.20;;;11.20;99.90;;;;;;5071586;28;20510;-57
2021/09/01 04:43:36;;;;;;;25.85;15.50;;;11.20;99.90;;;;;;5071046;28;20384;-57
2021/09/01 04:46:02;;;;;;;43.58;19.02;;;11.20;99.90;;;;;;5071576;28;20392;-57
2021/09/01 04:48:28;;;;;;;36.45;18.02;;;11.40;99.90;;;;;;5070932;28;20392;-57
2021/09/01 04:50:53;;;;;;;34.88;16.30;;;11.50;99.90;;;;;;5070201;28;20446;-57
2021/09/01 04:53:20;;;;;;;33.93;17.10;;;11.60;99.90;;;;;;5071676;28;20427;-57
2021/09/01 04:55:46;;;;;;;33.30;16.73;;;11.70;99.90;;;;;;5070547;28;20807;-57
2021/09/01 04:58:13;;;;;;;26.27;14.57;;;11.70;99.90;;;;;;5071515;28;20372;-57
2021/09/01 05:00:39;;;;;;;24.52;13.35;;;11.70;99.90;;;;;;5070886;28;20384;-57
2021/09/01 05:03:05;;;;;;;26.23;13.88;;;11.60;99.90;;;;;;5071433;28;20483;-57
2021/09/01 05:05:30;;;;;;;23.50;12.93;;;11.60;99.90;;;;;;5070858;28;20414;-57
2021/09/01 05:07:56;;;;;;;22.10;12.63;;;11.60;99.90;;;;;;5071455;28;20415;-57
2021/09/01 05:10:22;;;;;;;19.60;11.60;;;11.60;99.90;;;;;;5071790;28;20384;-57
2021/09/01 05:12:48;;;;;;;19.77;11.80;;;11.60;99.90;;;;;;5070708;28;20455;-57
2021/09/01 05:15:15;;;;;;;18.65;12.10;;;11.80;99.90;;;;;;5071478;28;20456;-57
2021/09/01 05:17:41;;;;;;;17.20;11.13;;;11.80;99.90;;;;;;5070145;28;20429;-57
2021/09/01 05:20:08;;;;;;;18.33;10.77;;;11.80;99.90;;;;;;5070742;28;20380;-57
2021/09/01 05:22:35;;;;;;;16.67;11.00;;;11.80;99.90;;;;;;5070101;28;20404;-59
2021/09/01 05:25:19;;;;;;;15.85;11.40;;;11.80;99.90;;;;;;5070911;28;20383;-59
2021/09/01 05:27:49;;;;;;;17.83;10.50;;;11.90;99.90;;;;;;5069994;28;20699;-59
2021/09/01 05:30:17;;;;;;;15.30;10.55;;;13.50;99.90;;;;;;5071207;28;20450;-56
2021/09/01 05:32:47;;;;;;;15.60;10.90;;;12.20;99.90;;;;;;5070230;28;20441;-59
2021/09/01 05:35:13;;;;;;;16.70;10.80;;;12.20;99.90;;;;;;5071015;28;20383;-57
2021/09/01 05:37:39;;;;;;;16.95;10.20;;;12.30;99.90;;;;;;5070161;28;20950;-57
2021/09/01 05:40:07;;;;;;;17.08;10.90;;;12.20;99.90;;;;;;5070679;28;20531;-57
2021/09/01 05:42:33;;;;;;;16.95;10.70;;;12.40;99.90;;;;;;5070155;28;20396;-59
2021/09/01 05:45:01;;;;;;;16.08;10.20;;;12.40;99.90;;;;;;5070679;28;20856;-59
2021/09/01 05:47:27;;;;;;;16.25;10.20;;;12.40;99.90;;;;;;5069933;28;20402;-57
2021/09/01 05:49:55;;;;;;;25.67;10.45;;;12.40;99.90;;;;;;5061311;28;20417;-58
2021/09/01 05:52:21;;;;;;;16.80;9.85;;;12.60;99.90;;;;;;5070403;28;20396;-57
2021/09/01 05:54:50;;;;;;;21.23;9.88;;;12.50;99.90;;;;;;5069094;28;20711;-58
2021/09/01 05:57:25;;;;;;;22.83;9.97;;;12.70;99.90;;;;;;5070533;28;20463;-58
2021/09/01 05:59:55;;;;;;;14.10;8.60;;;13.00;99.90;;;;;;5070072;28;20756;-57
2021/09/01 06:02:44;;;;;;;12.90;8.52;;;13.30;99.90;;;;;;5069986;28;20413;-57
2021/09/01 06:05:10;;;;;;;17.08;8.50;;;13.70;99.90;;;;;;5061686;28;20411;-57
2021/09/01 06:07:43;;;;;;;18.95;8.68;;;14.00;99.90;;;;;;5068803;28;20399;-58
2021/09/01 06:10:09;;;;;;;17.45;8.80;;;14.30;99.90;;;;;;5070427;28;20376;-58
2021/09/01 06:12:39;;;;;;;18.88;9.05;;;14.20;99.90;;;;;;5069335;28;20415;-58
2021/09/01 06:15:05;;;;;;;16.92;9.18;;;14.30;99.90;;;;;;5068719;28;20819;-58
2021/09/01 06:17:31;;;;;;;14.00;8.45;;;14.30;99.90;;;;;;5068426;28;20487;-58
2021/09/01 06:19:57;;;;;;;14.33;9.10;;;14.40;99.90;;;;;;5069652;28;20474;-58
2021/09/01 06:22:22;;;;;;;13.20;8.20;;;14.70;99.90;;;;;;5069585;28;20414;-56
2021/09/01 06:24:48;;;;;;;14.13;8.47;;;15.00;99.90;;;;;;5068329;28;20433;-56
2021/09/01 06:27:15;;;;;;;12.60;8.40;;;15.10;99.90;;;;;;5069836;28;20403;-56
2021/09/01 06:29:40;;;;;;;15.77;8.68;;;15.20;99.90;;;;;;5067398;28;20431;-56
2021/09/01 06:32:07;;;;;;;12.37;8.37;;;15.20;99.90;;;;;;5069362;28;20414;-58
2021/09/01 06:34:33;;;;;;;17.77;8.10;;;15.50;99.90;;;;;;5068499;28;20495;-57
2021/09/01 06:37:00;;;;;;;11.88;7.75;;;15.80;99.90;;;;;;5068999;28;20820;-57
2021/09/01 06:39:26;;;;;;;12.57;8.27;;;16.40;99.90;;;;;;5069048;28;20391;-58
2021/09/01 06:41:51;;;;;;;12.27;8.43;;;16.90;99.90;;;;;;5068778;28;20400;-57
2021/09/01 06:44:17;;;;;;;11.53;8.17;;;17.10;99.90;;;;;;5069084;28;21202;-58
2021/09/01 06:46:43;;;;;;;13.93;8.40;;;17.60;99.90;;;;;;5068728;28;20388;-59
2021/09/01 06:49:08;;;;;;;14.40;8.88;;;17.80;99.90;;;;;;5069247;28;20399;-60
2021/09/01 06:51:34;;;;;;;15.23;8.77;;;18.10;99.90;;;;;;5068493;28;20880;-57
2021/09/01 06:53:59;;;;;;;14.37;9.20;;;18.60;99.90;;;;;;5069665;28;20467;-58
2021/09/01 06:56:25;;;;;;;13.70;9.00;;;18.60;99.90;;;;;;5068584;28;20388;-58
2021/09/01 06:58:51;;;;;;;13.87;9.17;;;18.70;99.90;;;;;;5067640;28;20388;-58
2021/09/01 07:01:16;;;;;;;11.68;8.00;;;18.60;99.90;;;;;;5067887;28;20407;-58
2021/09/01 07:03:43;;;;;;;14.02;8.85;;;17.90;99.90;;;;;;5068158;28;20398;-58
2021/09/01 07:06:08;;;;;;;14.90;9.18;;;17.80;99.90;;;;;;5068969;28;20386;-58
2021/09/01 07:08:34;;;;;;;18.07;9.23;;;17.70;99.90;;;;;;5068128;28;20392;-55
2021/09/01 07:11:00;;;;;;;15.37;9.73;;;17.60;99.90;;;;;;5069040;28;20380;-54
2021/09/01 07:13:25;;;;;;;20.02;12.57;;;17.60;99.90;;;;;;5069101;28;20376;-56
2021/09/01 07:15:51;;;;;;;24.90;11.73;;;17.50;99.90;;;;;;5068745;28;20390;-55
2021/09/01 07:18:17;;;;;;;30.02;12.38;;;17.40;99.90;;;;;;5068986;28;20509;-57
2021/09/01 07:20:43;;;;;;;23.47;12.63;;;16.50;99.90;;;;;;5068422;28;20400;-56
2021/09/01 07:23:09;;;;;;;35.40;13.23;;;17.00;99.90;;;;;;5068987;28;20396;-54
2021/09/01 07:25:36;;;;;;;25.10;12.55;;;17.00;99.90;;;;;;5068225;28;20879;-55
2021/09/01 07:28:03;;;;;;;49.15;13.80;;;16.70;99.90;;;;;;5068803;28;20786;-56
2021/09/01 07:30:29;;;;;;;25.48;12.73;;;16.50;99.90;;;;;;5072393;28;20448;-55
2021/09/01 07:32:55;;;;;;;31.20;12.98;;;16.50;99.90;;;;;;5073027;28;20391;-52
2021/09/01 07:35:22;;;;;;;26.75;13.32;;;16.50;99.90;;;;;;5073021;28;20375;-56
2021/09/01 07:37:50;;;;;;;29.75;12.82;;;16.70;99.90;;;;;;5072017;28;20387;-56
2021/09/01 07:40:17;;;;;;;41.20;14.63;;;16.60;99.90;;;;;;5071474;28;20726;-56
2021/09/01 07:42:44;;;;;;;24.08;14.20;;;16.60;99.90;;;;;;5072339;28;20433;-56
2021/09/01 07:45:11;;;;;;;19.80;12.50;;;16.80;99.90;;;;;;5073153;28;20383;-56
2021/09/01 07:47:36;;;;;;;21.40;13.15;;;16.90;99.90;;;;;;5070985;28;20801;-57
2021/09/01 07:50:03;;;;;;;22.07;13.27;;;17.10;99.90;;;;;;5072675;28;20908;-57
2021/09/01 07:52:29;;;;;;;26.20;13.38;;;17.10;99.90;;;;;;5072417;28;20383;-57
2021/09/01 07:54:55;;;;;;;28.37;14.10;;;17.30;99.90;;;;;;5072425;28;20719;-57
2021/09/01 07:57:21;;;;;;;20.00;12.93;;;17.40;99.90;;;;;;5072745;28;20376;-57
2021/09/01 07:59:46;;;;;;;20.37;13.20;;;17.60;99.90;;;;;;5070851;28;20394;-57
2021/09/01 08:02:12;;;;;;;21.10;13.37;;;17.50;99.90;;;;;;5072285;28;20476;-57
2021/09/01 08:04:37;;;;;;;32.90;15.57;;;17.40;99.90;;;;;;5071407;28;20376;-57
2021/09/01 08:07:03;;;;;;;30.10;14.00;;;17.50;99.90;;;;;;5072623;28;20475;-57
2021/09/01 08:09:29;;;;;;;20.17;12.55;;;17.90;99.90;;;;;;5071969;28;20388;-58
2021/09/01 08:11:54;;;;;;;19.97;12.33;;;19.30;99.90;;;;;;5071995;28;20403;-57
2021/09/01 08:14:20;;;;;;;20.30;12.70;;;20.70;99.90;;;;;;5072441;28;20388;-57
2021/09/01 08:16:46;;;;;;;19.07;12.60;;;21.20;99.90;;;;;;5071542;28;20932;-57
2021/09/01 08:19:11;;;;;;;19.03;12.83;;;21.10;99.90;;;;;;5072092;28;20466;-57
2021/09/01 08:21:37;;;;;;;18.03;12.90;;;21.60;99.90;;;;;;5071758;28;20449;-58
2021/09/01 08:24:03;;;;;;;20.30;13.30;;;22.40;99.90;;;;;;5070892;28;20729;-58
2021/09/01 08:26:28;;;;;;;19.17;13.00;;;22.40;99.90;;;;;;5071937;28;20388;-58
2021/09/01 08:28:54;;;;;;;18.23;12.80;;;22.60;99.90;;;;;;5072005;28;20379;-58
2021/09/01 08:31:20;;;;;;;19.40;15.27;;;23.90;99.90;;;;;;5070651;28;20427;-59
2021/09/01 08:33:46;;;;;;;22.13;19.93;;;25.40;99.90;;;;;;5071076;28;20380;-56
2021/09/01 08:36:11;;;;;;;18.57;14.00;;;26.90;99.90;;;;;;5072270;28;20429;-57
2021/09/01 08:38:37;;;;;;;17.17;12.20;;;27.20;99.90;;;;;;5070983;28;20795;-57
2021/09/01 08:41:03;;;;;;;18.10;13.80;;;26.80;99.90;;;;;;5071506;28;20375;-57
2021/09/01 08:43:28;;;;;;;18.40;13.80;;;26.30;99.90;;;;;;5071573;28;20470;-57
2021/09/01 08:45:54;;;;;;;19.57;13.73;;;28.00;99.90;;;;;;5071333;28;20467;-57
2021/09/01 08:48:23;;;;;;;18.90;13.50;;;27.60;99.90;;;;;;5071397;28;20406;-58
2021/09/01 08:50:49;;;;;;;17.33;12.45;;;28.30;99.40;;;;;;5070732;28;20459;-58
2021/09/01 08:53:15;;;;;;;18.73;12.93;;;28.60;97.30;;;;;;5070776;28;20470;-58
2021/09/01 08:55:41;;;;;;;17.40;13.43;;;28.20;99.00;;;;;;5070769;28;20407;-58
2021/09/01 08:58:07;;;;;;;19.53;13.90;;;28.40;98.00;;;;;;5071210;28;20829;-58
2021/09/01 09:00:33;;;;;;;18.55;15.60;;;29.50;95.40;;;;;;5070379;28;20444;-59
2021/09/01 09:03:00;;;;;;;17.40;13.30;;;29.60;96.00;;;;;;5071390;28;20718;-59
2021/09/01 09:05:34;;;;;;;18.13;13.60;;;29.60;94.40;;;;;;5070344;28;20757;-59
2021/09/01 09:08:00;;;;;;;17.90;13.53;;;29.00;94.10;;;;;;5071538;28;20909;-59
2021/09/01 09:10:35;;;;;;;17.83;13.70;;;29.50;93.60;;;;;;5071340;28;20857;-59
2021/09/01 09:13:06;;;;;;;18.50;13.80;;;29.90;92.50;;;;;;5071655;28;20384;-59
2021/09/01 09:15:32;;;;;;;17.67;12.50;;;30.60;90.30;;;;;;5070599;28;20474;-60
2021/09/01 09:17:59;;;;;;;18.80;14.38;;;31.80;85.10;;;;;;5071082;28;20494;-59
2021/09/01 09:20:35;;;;;;;19.60;13.70;;;32.30;83.60;;;;;;5070963;28;20380;-60
2021/09/01 09:23:06;;;;;;;16.75;12.07;;;32.90;81.80;;;;;;5069714;28;20730;-60
2021/09/01 09:25:33;;;;;;;17.10;12.80;;;32.20;80.50;;;;;;5070063;28;20387;-61
2021/09/01 09:28:07;;;;;;;16.52;12.50;;;31.90;79.90;;;;;;5069780;28;20398;-60
2021/09/01 09:30:37;;;;;;;18.80;12.90;;;32.80;75.80;;;;;;5070308;28;20384;-60
2021/09/01 09:33:15;;;;;;;17.00;12.55;;;33.00;75.70;;;;;;5069378;28;20408;-60
2021/09/01 09:35:57;;;;;;;15.05;11.55;;;32.40;76.30;;;;;;5070006;28;20459;-59
2021/09/01 09:38:50;;;;;;;17.53;11.93;;;32.90;71.50;;;;;;5070736;28;20380;-60
2021/09/01 09:41:30;;;;;;;16.05;11.50;;;33.30;75.20;;;;;;5101312;28;20839;-60
2021/09/01 09:44:04;;;;;;;15.73;11.07;;;32.70;73.10;;;;;;5070333;28;20391;-60
2021/09/01 09:46:30;;;;;;;13.50;9.65;;;33.70;67.90;;;;;;5069697;28;20411;-60
2021/09/01 09:49:07;;;;;;;15.10;11.38;;;33.90;68.10;;;;;;5069874;28;20384;-60
2021/09/01 09:51:42;;;;;;;13.68;9.90;;;32.60;69.50;;;;;;5068596;28;20390;-60
2021/09/01 09:54:19;;;;;;;12.82;9.05;;;33.60;72.20;;;;;;5069864;28;20388;-60
2021/09/01 09:56:46;;;;;;;11.32;8.30;;;34.00;66.70;;;;;;5069717;28;20482;-60
2021/09/01 09:59:32;;;;;;;12.23;8.27;;;33.70;65.70;;;;;;5069810;28;20391;-60
2021/09/01 10:01:58;;;;;;;12.63;8.33;;;32.70;68.40;;;;;;5068167;28;20510;-60
2021/09/01 10:04:28;;;;;;;11.90;8.20;;;32.70;65.00;;;;;;5069385;28;20968;-60
2021/09/01 10:06:54;;;;;;;10.90;7.90;;;32.40;65.10;;;;;;5069418;28;20384;-60
2021/09/01 10:09:20;;;;;;;10.60;7.73;;;31.50;68.00;;;;;;5069972;28;20429;-60
2021/09/01 10:11:47;;;;;;;10.60;6.85;;;30.90;70.60;;;;;;5068690;28;20475;-60
2021/09/01 10:14:20;;;;;;;10.88;6.78;;;31.20;68.20;;;;;;5069736;28;20376;-60
2021/09/01 10:16:52;;;;;;;10.00;7.32;;;32.30;62.30;;;;;;5068714;28;20411;-60
2021/09/01 10:19:20;;;;;;;11.00;8.00;;;33.00;60.90;;;;;;5069522;28;20388;-59
2021/09/01 10:21:53;;;;;;;11.33;7.33;;;32.70;59.60;;;;;;5068775;28;20460;-59
2021/09/01 10:24:34;;;;;;;9.95;6.65;;;32.60;62.30;;;;;;5069834;28;20395;-58
2021/09/01 10:27:17;;;;;;;12.40;7.50;;;32.70;60.30;;;;;;5069226;28;20733;-58
2021/09/01 10:29:44;;;;;;;10.80;7.27;;;32.70;62.10;;;;;;5068807;28;20371;-60
2021/09/01 10:32:17;;;;;;;11.68;7.70;;;32.80;64.00;;;;;;5068961;28;20891;-59
2021/09/01 10:34:43;;;;;;;11.30;7.88;;;32.50;62.90;;;;;;5068339;28;20443;-60
2021/09/01 10:37:08;;;;;;;9.90;6.30;;;31.70;66.90;;;;;;5069630;28;20380;-59
2021/09/01 10:39:35;;;;;;;13.25;10.25;;;31.20;63.90;;;;;;5068353;28;20390;-59
2021/09/01 10:42:39;;;;;;;13.18;11.98;;;30.40;64.30;;;;;;5069173;28;20938;-59
2021/09/01 10:45:19;;;;;;;13.45;12.05;;;29.60;66.20;;;;;;5069131;28;20395;-59
2021/09/01 10:47:51;;;;;;;14.07;12.77;;;28.20;64.30;;;;;;5067972;28;20878;-59
2021/09/01 10:50:38;;;;;;;15.27;13.98;;;27.40;66.50;;;;;;5069356;28;20530;-60
2021/09/01 10:53:23;;;;;;;16.35;15.05;;;26.10;67.60;;;;;;5069641;28;20722;-59
2021/09/01 10:56:05;;;;;;;8.95;5.20;;;25.10;71.30;;;;;;5068320;28;21165;-59
2021/09/01 10:58:32;;;;;;;10.07;5.80;;;24.50;73.80;;;;;;5068655;28;20395;-58
2021/09/01 11:01:05;;;;;;;9.00;5.05;;;24.40;73.40;;;;;;5068874;28;20387;-60
2021/09/01 11:03:42;;;;;;;8.20;4.60;;;25.00;72.60;;;;;;5068348;28;20388;-60
2021/09/01 11:06:17;;;;;;;9.65;4.97;;;25.60;72.60;;;;;;5068605;28;20474;-59
2021/09/01 11:08:58;;;;;;;9.65;5.50;;;25.60;69.80;;;;;;5067107;28;20731;-58
2021/09/01 11:11:53;;;;;;;8.95;5.40;;;26.20;72.10;;;;;;5067268;28;20479;-58
2021/09/01 11:14:49;;;;;;;9.77;5.82;;;26.10;73.20;;;;;;5066826;28;20391;-59
2021/09/01 11:17:17;;;;;;;10.70;6.07;;;26.20;74.50;;;;;;5065450;28;21002;-58
2021/09/01 11:19:45;;;;;;;11.48;5.93;;;25.90;76.70;;;;;;5067532;28;20388;-59
2021/09/01 11:22:16;;;;;;;9.30;5.50;;;25.80;74.90;;;;;;5068321;28;20413;-59
2021/09/01 11:24:46;;;;;;;9.70;5.80;;;25.80;74.70;;;;;;5067086;28;20849;-60
2021/09/01 11:27:13;;;;;;;9.65;5.88;;;25.00;76.30;;;;;;5068517;28;20387;-59
2021/09/01 11:29:39;;;;;;;9.60;5.40;;;24.10;78.60;;;;;;5067371;28;20395;-59
2021/09/01 11:32:05;;;;;;;10.32;5.30;;;23.50;81.90;;;;;;5068238;28;20462;-57
2021/09/01 11:34:31;;;;;;;11.30;5.90;;;23.20;83.80;;;;;;5068004;28;20380;-57
2021/09/01 11:36:57;;;;;;;10.47;5.93;;;23.30;83.70;;;;;;5067658;28;20894;-58
2021/09/01 11:39:23;;;;;;;10.40;5.18;;;23.70;86.10;;;;;;5071442;28;20388;-58
2021/09/01 11:42:03;;;;;;;9.40;5.70;;;24.10;87.10;;;;;;5069229;28;20827;-59
2021/09/01 11:44:29;;;;;;;11.07;5.65;;;24.30;86.80;;;;;;5069465;28;20386;-59
2021/09/01 11:46:55;;;;;;;9.13;5.80;;;24.50;88.60;;;;;;5064729;28;20427;-59
2021/09/01 11:49:21;;;;;;;9.20;5.68;;;24.90;88.60;;;;;;5064845;28;20418;-59
2021/09/01 11:51:49;;;;;;;9.07;5.80;;;25.30;87.70;;;;;;5063671;28;20483;-59
2021/09/01 11:54:15;;;;;;;10.15;5.70;;;25.40;86.70;;;;;;5062852;28;20762;-59
2021/09/01 11:56:40;;;;;;;9.30;5.35;;;25.30;85.30;;;;;;5061072;28;20388;-59
2021/09/01 11:59:12;;;;;;;9.50;5.20;;;25.30;83.60;;;;;;5064585;28;20398;-60
2021/09/01 12:01:42;;;;;;;10.65;5.10;;;25.40;83.50;;;;;;5062008;28;20509;-59
2021/09/01 12:04:08;;;;;;;13.68;5.60;;;25.10;83.50;;;;;;5059756;28;20474;-60
2021/09/01 12:06:34;;;;;;;9.30;5.10;;;25.00;81.20;;;;;;5061893;28;20475;-60
2021/09/01 12:09:00;;;;;;;8.93;4.80;;;24.90;83.60;;;;;;5065753;28;20384;-60
2021/09/01 12:11:29;;;;;;;8.40;5.17;;;25.00;78.90;;;;;;5067329;28;20869;-59
2021/09/01 12:14:09;;;;;;;9.23;5.18;;;25.10;79.60;;;;;;5064262;28;20387;-59
2021/09/01 12:16:35;;;;;;;8.52;4.80;;;25.10;77.70;;;;;;5067402;28;20707;-60
2021/09/01 12:19:09;;;;;;;8.80;5.20;;;25.00;78.60;;;;;;5068055;28;20412;-59
2021/09/01 12:21:53;;;;;;;8.57;5.30;;;24.70;82.30;;;;;;5066501;28;20409;-59
2021/09/01 12:24:23;;;;;;;8.73;5.30;;;24.80;83.00;;;;;;5066395;28;20461;-60
2021/09/01 12:27:08;;;;;;;9.85;5.40;;;24.60;84.70;;;;;;5064968;28;20391;-59
2021/09/01 12:29:51;;;;;;;10.15;5.18;;;24.50;88.60;;;;;;5066460;28;20375;-61
2021/09/01 12:32:21;;;;;;;10.02;5.43;;;24.70;88.80;;;;;;5065153;28;20392;-60
2021/09/01 12:34:55;;;;;;;9.20;5.73;;;24.70;90.60;;;;;;5067235;28;20385;-60